Terminal Aerodrome Forecast
Issued by NWS Sterling, VA

Current Version | Previous Version | Text Only | Print | Product List | Glossary Off
Versions: 1 2 3 4 5 6 7 8 9 10 11 12 13 14 15 16 17 18 19 20 21 22

000
FTUS41 KLWX 280530
TAFIAD
TAF
KIAD 280530Z 2806/2912 VRB03KT P6SM SCT070 BKN120
     FM280800 VRB03KT 3SM BR SCT080
     FM281100 VRB05KT P6SM FEW060 SCT150
     FM281900 21005KT P6SM VCSH BKN060
     FM290400 VRB03KT P6SM BKN100=

USA.gov is the U.S. government's official web portal to all federal, state and local government web resources and services.